Time;durP1;ratioP1;P1;durP2;ratioP2;P2;SDS_P1;SDS_P2;PMS_P1;PMS_P2;Temp;Humidity;BMP_temperature;BMP_pressure;BME280_temperature;BME280_humidity;BME280_pressure;Samples;Min_cycle;Max_cycle;Signal;HPM_P1;HPM_P2
2024/01/06 00:01:39;;;;;;;8.77;4.80;;;6.40;99.90;;;;;;5053833;28;20178;-76
2024/01/06 00:04:04;;;;;;;7.07;5.00;;;6.30;99.90;;;;;;5061568;28;20179;-80
2024/01/06 00:06:30;;;;;;;6.33;4.83;;;6.40;99.90;;;;;;5053685;28;20172;-77
2024/01/06 00:08:56;;;;;;;5.30;4.50;;;6.40;99.90;;;;;;5052696;28;20301;-79
2024/01/06 00:11:22;;;;;;;9.23;5.53;;;6.40;99.90;;;;;;5052710;28;20186;-78
2024/01/06 00:13:48;;;;;;;8.03;5.13;;;6.40;99.90;;;;;;5052747;28;20176;-79
2024/01/06 00:16:18;;;;;;;5.50;4.57;;;6.40;99.90;;;;;;5052918;28;20214;-80
2024/01/06 00:18:43;;;;;;;5.20;4.40;;;6.50;99.90;;;;;;5052824;28;20172;-78
2024/01/06 00:21:09;;;;;;;5.77;4.97;;;6.50;99.90;;;;;;5052619;28;20203;-77
2024/01/06 00:23:35;;;;;;;8.60;5.13;;;6.50;99.90;;;;;;5052660;28;20265;-78
2024/01/06 00:26:01;;;;;;;7.27;4.73;;;6.50;99.90;;;;;;5051959;28;20177;-79
2024/01/06 00:28:26;;;;;;;6.13;5.17;;;6.40;99.90;;;;;;5052891;28;20171;-78
2024/01/06 00:30:53;;;;;;;5.87;4.83;;;6.30;99.90;;;;;;5053601;28;20176;-78
2024/01/06 00:33:19;;;;;;;9.30;5.00;;;6.20;99.90;;;;;;5055257;28;20554;-78
2024/01/06 00:35:44;;;;;;;5.93;4.40;;;6.30;99.90;;;;;;5068677;28;20203;-78
2024/01/06 00:38:10;;;;;;;5.60;4.30;;;6.30;99.90;;;;;;5072642;28;20167;-79
2024/01/06 00:40:37;;;;;;;4.70;3.93;;;6.30;99.90;;;;;;5055204;28;20208;-78
2024/01/06 00:43:02;;;;;;;4.90;4.40;;;6.30;99.90;;;;;;5053003;28;20175;-79
2024/01/06 00:45:28;;;;;;;10.17;4.60;;;6.40;99.90;;;;;;5052452;28;20193;-77
2024/01/06 00:47:54;;;;;;;7.27;4.53;;;6.40;99.90;;;;;;5056196;28;20222;-80
2024/01/06 00:50:20;;;;;;;7.17;4.50;;;6.40;99.90;;;;;;5062952;28;20248;-78
2024/01/06 00:52:45;;;;;;;6.07;4.37;;;6.30;99.90;;;;;;5055642;28;20280;-82
2024/01/06 00:55:11;;;;;;;4.83;4.37;;;6.40;99.90;;;;;;5055741;28;20196;-79
2024/01/06 00:57:37;;;;;;;7.27;4.17;;;6.30;99.90;;;;;;5054879;28;20176;-80
2024/01/06 01:00:06;;;;;;;10.27;4.67;;;6.30;99.90;;;;;;5056066;28;20263;-79
2024/01/06 01:02:32;;;;;;;4.47;3.90;;;6.30;99.90;;;;;;5056205;28;20185;-76
2024/01/06 01:04:58;;;;;;;6.23;4.23;;;6.30;99.90;;;;;;5054601;28;20198;-79
2024/01/06 01:07:24;;;;;;;7.67;4.67;;;6.30;99.90;;;;;;5055510;28;20179;-78
2024/01/06 01:09:50;;;;;;;8.40;4.70;;;6.30;99.90;;;;;;5055682;28;20269;-80
2024/01/06 01:12:15;;;;;;;6.67;4.17;;;6.30;99.90;;;;;;5061490;28;20190;-80
2024/01/06 01:14:41;;;;;;;6.97;4.00;;;6.40;99.90;;;;;;5070174;28;20241;-78
2024/01/06 01:17:07;;;;;;;7.73;4.57;;;6.40;99.90;;;;;;5063687;28;20187;-80
2024/01/06 01:19:33;;;;;;;5.77;4.37;;;6.30;99.90;;;;;;5056079;28;20204;-80
2024/01/06 01:21:59;;;;;;;5.57;4.60;;;6.30;99.90;;;;;;5053393;28;20181;-79
2024/01/06 01:24:24;;;;;;;6.03;4.50;;;6.40;99.90;;;;;;5055460;28;20693;-77
2024/01/06 01:26:51;;;;;;;6.27;4.47;;;6.40;99.90;;;;;;5055216;28;20265;-80
2024/01/06 01:29:19;;;;;;;5.33;4.70;;;6.50;99.90;;;;;;5055357;28;20250;-80
2024/01/06 01:31:46;;;;;;;5.77;4.33;;;6.50;99.90;;;;;;5056354;28;20255;-77
2024/01/06 01:34:12;;;;;;;5.67;4.60;;;6.30;99.90;;;;;;5055308;28;20183;-80
2024/01/06 01:36:38;;;;;;;6.10;4.43;;;6.30;99.90;;;;;;5054891;28;20209;-79
2024/01/06 01:39:03;;;;;;;4.67;4.20;;;6.20;99.90;;;;;;5055419;28;20175;-80
2024/01/06 01:41:29;;;;;;;7.03;4.47;;;6.10;99.90;;;;;;5058616;28;20179;-77
2024/01/06 01:43:58;;;;;;;6.40;4.50;;;6.20;99.90;;;;;;5060446;28;20179;-78
2024/01/06 01:46:30;;;;;;;4.80;4.30;;;6.20;99.90;;;;;;5065292;28;20183;-80
2024/01/06 01:48:58;;;;;;;7.70;4.73;;;6.20;99.90;;;;;;5057161;28;20171;-80
2024/01/06 01:51:28;;;;;;;7.43;5.17;;;6.10;99.90;;;;;;5054459;28;20569;-79
2024/01/06 01:53:54;;;;;;;9.93;5.87;;;6.10;99.90;;;;;;5055486;28;20202;-80
2024/01/06 01:56:20;;;;;;;7.10;4.90;;;6.20;99.90;;;;;;5055142;28;20221;-76
2024/01/06 01:58:47;;;;;;;6.53;5.10;;;6.20;99.90;;;;;;5064656;28;20217;-77
2024/01/06 02:01:13;;;;;;;6.07;4.83;;;6.30;99.90;;;;;;5066938;28;20172;-76
2024/01/06 02:03:44;;;;;;;9.33;4.83;;;6.20;99.90;;;;;;5058380;28;20177;-80
2024/01/06 02:06:11;;;;;;;6.20;4.57;;;6.30;99.90;;;;;;5055033;28;20162;-80
2024/01/06 02:08:37;;;;;;;5.77;4.40;;;6.30;99.90;;;;;;5054367;28;20227;-80
2024/01/06 02:11:04;;;;;;;7.43;4.60;;;6.30;99.90;;;;;;5054490;28;20643;-78
2024/01/06 02:13:37;;;;;;;5.20;4.40;;;6.30;99.90;;;;;;5054201;28;20179;-77
2024/01/06 02:16:04;;;;;;;6.77;4.20;;;6.30;99.90;;;;;;5054333;28;20344;-79
2024/01/06 02:18:31;;;;;;;7.03;4.70;;;6.30;99.90;;;;;;5054517;28;20169;-77
2024/01/06 02:21:00;;;;;;;6.17;4.30;;;6.30;99.90;;;;;;5054462;28;20174;-78
2024/01/06 02:23:29;;;;;;;7.80;4.47;;;6.30;99.90;;;;;;5056163;28;20160;-80
2024/01/06 02:25:56;;;;;;;4.63;4.10;;;6.30;99.90;;;;;;5059574;28;20172;-77
2024/01/06 02:28:22;;;;;;;8.10;4.30;;;6.30;99.90;;;;;;5065206;28;20184;-76
2024/01/06 02:30:49;;;;;;;6.50;4.17;;;6.30;99.90;;;;;;5060682;28;20183;-80
2024/01/06 02:33:14;;;;;;;4.90;4.30;;;6.30;99.90;;;;;;5055214;28;20167;-82
2024/01/06 02:35:40;;;;;;;8.10;5.60;;;6.30;99.90;;;;;;5054706;28;20272;-78
2024/01/06 02:38:08;;;;;;;7.87;5.27;;;5.80;99.90;;;;;;5055527;28;20258;-80
2024/01/06 02:40:34;;;;;;;7.40;5.37;;;6.30;99.90;;;;;;5054495;28;20176;-79
2024/01/06 02:42:59;;;;;;;7.13;4.63;;;6.30;99.90;;;;;;5053456;28;20541;-80
2024/01/06 02:45:25;;;;;;;6.70;4.87;;;6.40;99.90;;;;;;5053998;28;20178;-79
2024/01/06 02:47:51;;;;;;;5.20;3.80;;;6.40;99.90;;;;;;5053246;28;20648;-78
2024/01/06 02:50:17;;;;;;;6.20;4.20;;;6.40;99.90;;;;;;5053938;28;20572;-76
2024/01/06 02:52:45;;;;;;;5.33;4.30;;;6.40;99.90;;;;;;5054645;28;20178;-76
2024/01/06 02:55:11;;;;;;;6.83;4.47;;;6.40;99.90;;;;;;5054248;28;20283;-77
2024/01/06 02:57:38;;;;;;;6.63;4.60;;;6.50;99.90;;;;;;5053114;28;20182;-77
2024/01/06 03:00:04;;;;;;;7.30;4.67;;;6.60;99.90;;;;;;5059839;28;20191;-77
2024/01/06 03:02:30;;;;;;;6.00;3.90;;;6.60;99.90;;;;;;5059144;28;20619;-80
2024/01/06 03:04:56;;;;;;;7.43;3.87;;;6.60;99.90;;;;;;5053951;28;20175;-79
2024/01/06 03:07:22;;;;;;;5.07;4.20;;;6.60;99.90;;;;;;5053802;28;20167;-78
2024/01/06 03:09:47;;;;;;;4.07;3.77;;;6.60;99.90;;;;;;5047833;28;20238;-77
2024/01/06 03:12:13;;;;;;;5.57;4.13;;;6.50;99.90;;;;;;5047853;28;20183;-77
2024/01/06 03:14:39;;;;;;;5.17;4.30;;;6.50;99.90;;;;;;5039379;28;20233;-79
2024/01/06 03:17:05;;;;;;;4.30;3.93;;;6.60;99.90;;;;;;5033941;28;20180;-78
2024/01/06 03:19:31;;;;;;;4.30;3.87;;;6.60;99.90;;;;;;5059017;28;20184;-77
2024/01/06 03:21:57;;;;;;;4.23;3.77;;;6.60;99.90;;;;;;5055623;28;20233;-78
2024/01/06 03:24:24;;;;;;;5.87;4.10;;;6.70;99.90;;;;;;5052551;28;20186;-80
2024/01/06 03:26:50;;;;;;;3.83;3.53;;;6.70;99.90;;;;;;5053522;28;20262;-79
2024/01/06 03:29:16;;;;;;;10.27;3.80;;;6.70;99.90;;;;;;5053833;28;20573;-79
2024/01/06 03:31:45;;;;;;;8.60;4.07;;;6.80;99.90;;;;;;5054399;28;20206;-79
2024/01/06 03:34:11;;;;;;;5.23;4.20;;;6.80;99.90;;;;;;5054806;28;20175;-77
2024/01/06 03:36:38;;;;;;;4.57;4.10;;;6.80;99.90;;;;;;5066359;28;20204;-81
2024/01/06 03:39:04;;;;;;;6.43;4.00;;;6.80;99.90;;;;;;5064773;28;20191;-77
2024/01/06 03:41:30;;;;;;;9.30;3.73;;;6.80;99.90;;;;;;5053768;28;20186;-77
2024/01/06 03:43:55;;;;;;;4.63;3.80;;;6.80;99.90;;;;;;5085565;28;20180;-76
2024/01/06 03:46:22;;;;;;;5.27;4.00;;;6.80;99.90;;;;;;5053408;28;20229;-78
2024/01/06 03:48:48;;;;;;;4.40;3.90;;;6.80;99.90;;;;;;5056435;28;20271;-78
2024/01/06 03:51:14;;;;;;;6.17;4.23;;;6.90;99.90;;;;;;5057235;28;20215;-79
2024/01/06 03:53:40;;;;;;;5.43;3.97;;;6.80;99.90;;;;;;5054052;28;20219;-77
2024/01/06 03:56:06;;;;;;;4.40;4.00;;;6.90;99.90;;;;;;5053637;28;20290;-79
2024/01/06 03:58:32;;;;;;;5.67;4.20;;;6.80;99.90;;;;;;5054366;28;20174;-76
2024/01/06 04:00:58;;;;;;;4.50;4.10;;;6.80;99.90;;;;;;5075561;28;20207;-78
2024/01/06 04:03:23;;;;;;;5.97;4.00;;;6.90;99.90;;;;;;5057121;28;20623;-78
2024/01/06 04:05:49;;;;;;;4.47;3.90;;;6.90;99.90;;;;;;5053066;28;20189;-76
2024/01/06 04:08:15;;;;;;;7.43;4.23;;;6.90;99.90;;;;;;5052843;28;20184;-79
2024/01/06 04:10:41;;;;;;;5.57;4.00;;;6.90;99.90;;;;;;5051873;28;20656;-77
2024/01/06 04:13:07;;;;;;;4.23;3.67;;;6.80;99.90;;;;;;5052303;28;20248;-78
2024/01/06 04:15:33;;;;;;;7.83;3.83;;;6.80;99.90;;;;;;5052371;28;20679;-79
2024/01/06 04:18:05;;;;;;;4.30;3.90;;;6.80;99.90;;;;;;5052502;28;20172;-81
2024/01/06 04:20:32;;;;;;;5.40;4.27;;;6.80;99.90;;;;;;5051519;28;20176;-78
2024/01/06 04:22:58;;;;;;;6.10;3.90;;;6.80;99.90;;;;;;5054796;28;20169;-79
2024/01/06 04:25:24;;;;;;;4.73;3.83;;;6.70;99.90;;;;;;5056316;28;20186;-78
2024/01/06 04:27:49;;;;;;;4.27;3.87;;;6.70;99.90;;;;;;5056614;28;20194;-80
2024/01/06 04:30:16;;;;;;;4.93;4.10;;;6.70;99.90;;;;;;5056462;28;20178;-79
2024/01/06 04:32:42;;;;;;;4.33;3.73;;;6.70;99.90;;;;;;5056082;28;20187;-79
2024/01/06 04:35:10;;;;;;;6.83;3.83;;;6.70;99.90;;;;;;5056395;28;20686;-81
2024/01/06 04:37:36;;;;;;;4.43;3.70;;;6.70;99.90;;;;;;5056935;28;20198;-81
2024/01/06 04:40:02;;;;;;;6.23;3.73;;;6.80;99.90;;;;;;5056294;28;20168;-79
2024/01/06 04:42:28;;;;;;;5.07;4.20;;;6.70;99.90;;;;;;5061942;28;20184;-78
2024/01/06 04:44:54;;;;;;;4.60;3.80;;;6.70;99.90;;;;;;5061795;28;20332;-78
2024/01/06 04:47:20;;;;;;;4.17;3.80;;;6.70;99.90;;;;;;5056384;28;20648;-78
2024/01/06 04:49:45;;;;;;;5.13;4.63;;;6.70;99.90;;;;;;5056160;28;20171;-81
2024/01/06 04:52:11;;;;;;;6.73;5.00;;;6.60;99.90;;;;;;5056265;28;20184;-77
2024/01/06 04:54:37;;;;;;;6.37;4.60;;;6.50;99.90;;;;;;5056209;28;20253;-77
2024/01/06 04:57:04;;;;;;;7.40;4.90;;;6.50;99.90;;;;;;5061023;28;20249;-79
2024/01/06 04:59:30;;;;;;;4.70;4.00;;;6.40;99.90;;;;;;5057367;28;20642;-77
2024/01/06 05:01:57;;;;;;;5.30;4.33;;;6.30;99.90;;;;;;5056225;28;20539;-79
2024/01/06 05:04:22;;;;;;;4.10;3.70;;;6.30;99.90;;;;;;5055959;28;20170;-78
2024/01/06 05:06:49;;;;;;;6.87;4.53;;;6.40;99.90;;;;;;5056396;28;20183;-79
2024/01/06 05:09:15;;;;;;;9.80;4.63;;;6.40;99.90;;;;;;5072768;28;20233;-77
2024/01/06 05:11:43;;;;;;;6.10;4.30;;;6.40;99.90;;;;;;5063335;28;20282;-82
2024/01/06 05:14:09;;;;;;;5.93;4.33;;;6.40;99.90;;;;;;5056273;28;20182;-80
2024/01/06 05:16:35;;;;;;;4.87;4.20;;;6.20;99.90;;;;;;5055614;28;20215;-83
2024/01/06 05:19:01;;;;;;;6.87;4.20;;;6.30;99.90;;;;;;5056528;28;20228;-77
2024/01/06 05:21:27;;;;;;;9.37;4.23;;;6.20;99.90;;;;;;5057658;28;20189;-78
2024/01/06 05:23:52;;;;;;;5.77;4.20;;;6.20;99.90;;;;;;5060210;28;20178;-78
2024/01/06 05:26:18;;;;;;;4.87;4.33;;;6.20;99.90;;;;;;5062176;28;20190;-78
2024/01/06 05:28:44;;;;;;;5.53;4.17;;;6.30;99.90;;;;;;5054926;28;20178;-82
2024/01/06 05:31:10;;;;;;;6.80;4.17;;;6.30;99.90;;;;;;5055381;28;20733;-77
2024/01/06 05:33:36;;;;;;;5.20;4.03;;;6.30;99.90;;;;;;5054495;28;20175;-79
2024/01/06 05:36:02;;;;;;;6.93;4.30;;;6.30;99.90;;;;;;5053489;28;20297;-77
2024/01/06 05:38:27;;;;;;;5.87;4.23;;;6.30;99.90;;;;;;5055503;28;20217;-76
2024/01/06 05:40:53;;;;;;;5.23;4.50;;;6.30;99.90;;;;;;5056765;28;20177;-79
2024/01/06 05:43:19;;;;;;;4.87;3.90;;;6.30;99.90;;;;;;5055109;28;20193;-79
2024/01/06 05:45:45;;;;;;;6.03;4.43;;;6.30;99.90;;;;;;5055345;28;20257;-81
2024/01/06 05:48:11;;;;;;;6.20;4.43;;;6.30;99.90;;;;;;5055215;28;20644;-78
2024/01/06 05:50:40;;;;;;;8.93;4.70;;;6.20;99.90;;;;;;5054910;28;20629;-77
2024/01/06 05:53:07;;;;;;;5.83;4.17;;;6.30;99.90;;;;;;5060910;28;20199;-76
2024/01/06 05:55:33;;;;;;;5.93;4.10;;;6.40;99.90;;;;;;5075811;28;20230;-76
2024/01/06 05:57:58;;;;;;;5.27;4.27;;;6.40;99.90;;;;;;5060677;28;20182;-76
2024/01/06 06:00:24;;;;;;;4.33;3.93;;;6.30;99.90;;;;;;5050784;28;20199;-78
2024/01/06 06:02:50;;;;;;;5.23;4.03;;;6.20;99.90;;;;;;5034629;28;20183;-77
2024/01/06 06:05:16;;;;;;;4.77;4.20;;;6.30;99.90;;;;;;5035131;28;20572;-79
2024/01/06 06:07:42;;;;;;;7.00;4.33;;;6.30;99.90;;;;;;5035187;28;20289;-77
2024/01/06 06:10:10;;;;;;;5.70;4.27;;;6.30;99.90;;;;;;5041639;28;20216;-79
2024/01/06 06:12:36;;;;;;;7.87;5.60;;;6.30;99.90;;;;;;5042303;28;20190;-80
2024/01/06 06:15:03;;;;;;;6.33;4.27;;;6.30;99.90;;;;;;5033648;28;20176;-79
2024/01/06 06:17:30;;;;;;;5.17;3.90;;;6.20;99.90;;;;;;5034940;28;20255;-80
2024/01/06 06:19:57;;;;;;;4.70;4.17;;;6.20;99.90;;;;;;5035274;28;20255;-77
2024/01/06 06:22:25;;;;;;;4.40;4.00;;;6.20;99.90;;;;;;5035153;28;20200;-79
2024/01/06 06:24:51;;;;;;;6.47;4.77;;;6.30;99.90;;;;;;5036895;28;20512;-79
2024/01/06 06:27:17;;;;;;;5.63;4.07;;;6.30;99.90;;;;;;5036276;28;20179;-80
2024/01/06 06:29:43;;;;;;;7.70;4.50;;;6.40;99.90;;;;;;5036956;28;20190;-80
2024/01/06 06:32:09;;;;;;;6.20;4.20;;;6.40;99.90;;;;;;5055217;28;20627;-77
2024/01/06 06:34:34;;;;;;;6.83;4.10;;;6.50;99.90;;;;;;5063295;28;20264;-77
2024/01/06 06:37:00;;;;;;;6.80;4.40;;;6.40;99.90;;;;;;5056728;28;20627;-77
2024/01/06 06:39:27;;;;;;;4.80;4.13;;;6.40;99.90;;;;;;5054257;28;20262;-80
2024/01/06 06:41:53;;;;;;;7.23;4.73;;;6.40;99.90;;;;;;5054756;28;20207;-77
2024/01/06 06:44:18;;;;;;;4.93;4.40;;;6.40;99.90;;;;;;5054154;28;20207;-78
2024/01/06 06:46:44;;;;;;;4.83;4.33;;;6.40;99.90;;;;;;5052965;28;20176;-79
2024/01/06 06:49:10;;;;;;;7.23;5.00;;;6.50;99.90;;;;;;5054151;28;20228;-79
2024/01/06 06:51:36;;;;;;;8.87;6.33;;;6.50;99.90;;;;;;5054062;28;20162;-80
2024/01/06 06:54:01;;;;;;;7.07;5.20;;;6.50;99.90;;;;;;5054242;28;20183;-79
2024/01/06 06:56:27;;;;;;;9.30;6.80;;;6.50;99.90;;;;;;5054644;28;20214;-78
2024/01/06 06:58:53;;;;;;;8.60;6.73;;;6.60;99.90;;;;;;5054194;28;20643;-78
2024/01/06 07:01:19;;;;;;;7.77;5.73;;;6.60;99.90;;;;;;5053346;28;20264;-78
2024/01/06 07:03:44;;;;;;;7.43;5.50;;;6.60;99.90;;;;;;5053308;28;20184;-79
2024/01/06 07:06:14;;;;;;;6.80;5.27;;;6.50;99.90;;;;;;5055498;28;20186;-77
2024/01/06 07:08:41;;;;;;;9.00;5.23;;;6.50;99.90;;;;;;5057292;28;20231;-78
2024/01/06 07:11:07;;;;;;;6.90;5.03;;;6.50;99.90;;;;;;5054588;28;20163;-79
2024/01/06 07:13:33;;;;;;;5.93;4.80;;;6.50;99.90;;;;;;5057373;28;20175;-77
2024/01/06 07:15:59;;;;;;;6.10;4.93;;;6.50;99.90;;;;;;5052295;28;20215;-77
2024/01/06 07:18:25;;;;;;;6.10;4.67;;;6.40;99.90;;;;;;5041061;28;20172;-81
2024/01/06 07:20:51;;;;;;;6.90;4.80;;;6.40;99.90;;;;;;5053461;28;20177;-79
2024/01/06 07:23:17;;;;;;;6.10;5.00;;;6.40;99.90;;;;;;5054250;28;20179;-80
2024/01/06 07:25:43;;;;;;;8.77;5.30;;;6.40;99.90;;;;;;5053887;28;20191;-78
2024/01/06 07:28:09;;;;;;;9.40;4.60;;;6.40;99.90;;;;;;5054215;28;20189;-80
2024/01/06 07:30:34;;;;;;;8.03;4.53;;;6.40;99.90;;;;;;5055545;28;20186;-79
2024/01/06 07:33:00;;;;;;;6.67;4.77;;;6.50;99.90;;;;;;5054126;28;20160;-80
2024/01/06 07:35:26;;;;;;;4.93;4.43;;;6.40;99.90;;;;;;5052653;28;20244;-77
2024/01/06 07:37:53;;;;;;;6.17;4.53;;;6.40;99.90;;;;;;5053182;28;20168;-79
2024/01/06 07:40:18;;;;;;;6.60;4.57;;;6.40;99.90;;;;;;5054002;28;20274;-75
2024/01/06 07:42:44;;;;;;;4.60;4.20;;;6.40;99.90;;;;;;5056942;28;20214;-76
2024/01/06 07:45:10;;;;;;;6.03;4.80;;;6.40;99.90;;;;;;5058722;28;20178;-78
2024/01/06 07:47:37;;;;;;;5.23;4.37;;;6.30;99.90;;;;;;5058360;28;20639;-77
2024/01/06 07:50:05;;;;;;;6.57;4.83;;;6.30;99.90;;;;;;5069398;28;20168;-80
2024/01/06 07:52:30;;;;;;;5.20;4.70;;;6.30;99.90;;;;;;5056702;28;20181;-81
2024/01/06 07:54:56;;;;;;;7.13;5.20;;;6.30;99.90;;;;;;5052244;28;20176;-81
2024/01/06 07:57:22;;;;;;;7.73;5.50;;;6.40;99.90;;;;;;5054546;28;20216;-80
2024/01/06 07:59:47;;;;;;;6.83;4.93;;;6.40;99.90;;;;;;5057021;28;20184;-78
2024/01/06 08:02:13;;;;;;;5.17;4.67;;;6.40;99.90;;;;;;5057826;28;20183;-81
2024/01/06 08:04:39;;;;;;;7.67;5.63;;;6.40;99.90;;;;;;5057322;28;20187;-77
2024/01/06 08:07:05;;;;;;;5.53;4.73;;;6.50;99.90;;;;;;5057626;28;20207;-78
2024/01/06 08:09:30;;;;;;;8.67;4.80;;;6.50;99.90;;;;;;5061214;28;20253;-79
2024/01/06 08:11:56;;;;;;;9.00;5.37;;;6.60;99.90;;;;;;5064543;28;20183;-78
2024/01/06 08:14:22;;;;;;;10.00;5.17;;;6.60;99.90;;;;;;5062177;28;20187;-78
2024/01/06 08:16:47;;;;;;;5.50;4.87;;;6.70;99.90;;;;;;5057169;28;20618;-79
2024/01/06 08:19:13;;;;;;;5.57;5.03;;;6.60;99.90;;;;;;5056746;28;20616;-80
2024/01/06 08:21:39;;;;;;;6.43;5.13;;;6.50;99.90;;;;;;5057605;28;20695;-76
2024/01/06 08:24:05;;;;;;;8.83;5.40;;;6.40;99.90;;;;;;5056771;28;20171;-79
2024/01/06 08:26:31;;;;;;;6.50;5.07;;;6.40;99.90;;;;;;5057071;28;20182;-80
2024/01/06 08:28:57;;;;;;;5.20;4.53;;;6.30;99.90;;;;;;5057467;28;20180;-78
2024/01/06 08:31:23;;;;;;;6.90;4.97;;;6.30;99.90;;;;;;5048582;28;20200;-77
2024/01/06 08:33:48;;;;;;;5.07;4.57;;;6.30;99.90;;;;;;5036907;28;20187;-77
2024/01/06 08:36:14;;;;;;;8.30;5.00;;;6.30;99.90;;;;;;5055606;28;20213;-79
2024/01/06 08:38:40;;;;;;;9.43;4.80;;;6.40;99.90;;;;;;5059323;28;20252;-78
2024/01/06 08:41:06;;;;;;;7.37;5.40;;;6.50;99.90;;;;;;5059781;28;20201;-80
2024/01/06 08:43:32;;;;;;;7.10;5.30;;;6.40;99.90;;;;;;5054485;28;20201;-79
2024/01/06 08:45:57;;;;;;;6.10;4.83;;;6.30;99.90;;;;;;5039055;28;20201;-76
2024/01/06 08:48:23;;;;;;;5.53;5.00;;;6.40;99.90;;;;;;5040891;28;20641;-78
2024/01/06 08:50:49;;;;;;;9.10;5.63;;;6.50;99.90;;;;;;5050802;28;20220;-76
2024/01/06 08:53:15;;;;;;;8.47;5.50;;;6.50;99.90;;;;;;5057040;28;20171;-79
2024/01/06 08:55:41;;;;;;;9.60;6.03;;;6.60;99.90;;;;;;5055385;28;20567;-76
2024/01/06 08:58:07;;;;;;;6.00;5.33;;;6.70;99.90;;;;;;5057435;28;20207;-80
2024/01/06 09:00:32;;;;;;;7.03;5.17;;;6.70;99.90;;;;;;5057500;28;20209;-76
2024/01/06 09:02:59;;;;;;;6.80;5.20;;;6.50;99.90;;;;;;5060434;28;20688;-77
2024/01/06 09:05:25;;;;;;;7.77;5.30;;;6.50;99.90;;;;;;5076887;28;20225;-77
2024/01/06 09:07:51;;;;;;;7.20;5.70;;;6.50;99.90;;;;;;5074910;28;20178;-78
2024/01/06 09:10:19;;;;;;;8.43;5.87;;;6.50;99.90;;;;;;5060630;28;20217;-77
2024/01/06 09:12:45;;;;;;;6.20;4.80;;;6.50;99.90;;;;;;5055965;28;20186;-79
2024/01/06 09:15:11;;;;;;;9.83;6.00;;;6.60;99.90;;;;;;5056299;28;20204;-78
2024/01/06 09:17:37;;;;;;;7.60;5.50;;;6.60;99.90;;;;;;5052050;28;20186;-76
2024/01/06 09:20:03;;;;;;;7.43;5.70;;;6.70;99.90;;;;;;5052613;28;20179;-79
2024/01/06 09:22:29;;;;;;;6.63;5.40;;;6.70;99.90;;;;;;5047631;28;20189;-79
2024/01/06 09:24:55;;;;;;;7.57;5.17;;;6.50;99.90;;;;;;5057755;28;20182;-78
2024/01/06 09:27:21;;;;;;;8.90;5.20;;;6.70;99.90;;;;;;5056343;28;20172;-77
2024/01/06 09:29:46;;;;;;;6.43;5.17;;;6.70;99.90;;;;;;5058474;28;20175;-79
2024/01/06 09:32:13;;;;;;;5.73;5.20;;;6.70;99.90;;;;;;5056205;28;20171;-76
2024/01/06 09:34:39;;;;;;;6.43;4.93;;;6.70;99.90;;;;;;5055476;28;20182;-78
2024/01/06 09:37:04;;;;;;;8.17;6.10;;;6.60;99.90;;;;;;5057835;28;20206;-77
2024/01/06 09:39:33;;;;;;;9.87;6.20;;;6.70;99.90;;;;;;5063874;28;20182;-76
2024/01/06 09:41:59;;;;;;;8.67;5.63;;;6.80;99.90;;;;;;5066293;28;20261;-76
2024/01/06 09:44:25;;;;;;;9.93;6.37;;;6.90;99.90;;;;;;5056934;28;20212;-75
2024/01/06 09:46:51;;;;;;;9.53;6.90;;;6.90;99.90;;;;;;5068544;28;20179;-76
2024/01/06 09:49:23;;;;;;;11.50;8.07;;;9.30;99.90;;;;;;5065541;28;20225;-79
2024/01/06 09:51:52;;;;;;;13.27;6.77;;;6.80;99.90;;;;;;5061761;28;20584;-75
2024/01/06 09:54:26;;;;;;;10.90;7.30;;;6.90;99.90;;;;;;5060074;28;20211;-75
2024/01/06 09:56:51;;;;;;;8.80;6.07;;;7.10;99.90;;;;;;5060461;28;20196;-79
2024/01/06 09:59:20;;;;;;;9.30;6.53;;;7.10;99.90;;;;;;5056807;28;20284;-76
2024/01/06 10:01:45;;;;;;;8.20;6.57;;;7.00;99.90;;;;;;5056266;28;20179;-77
2024/01/06 10:04:11;;;;;;;11.33;6.57;;;7.20;99.90;;;;;;5055548;28;20644;-75
2024/01/06 10:06:40;;;;;;;6.87;5.30;;;7.20;99.90;;;;;;5056597;28;20183;-77
2024/01/06 10:09:09;;;;;;;10.13;6.47;;;7.60;99.90;;;;;;5055181;28;20249;-76
2024/01/06 10:11:36;;;;;;;8.93;6.20;;;7.20;99.90;;;;;;5055334;28;20644;-77
2024/01/06 10:14:03;;;;;;;7.57;6.13;;;7.20;99.90;;;;;;5054847;28;20328;-78
2024/01/06 10:16:29;;;;;;;7.50;5.90;;;7.10;99.90;;;;;;5055874;28;20211;-76
2024/01/06 10:18:54;;;;;;;9.00;5.83;;;7.10;99.90;;;;;;5055894;28;20179;-75
2024/01/06 10:21:25;;;;;;;7.33;5.20;;;7.00;99.90;;;;;;5062189;28;20207;-77
2024/01/06 10:23:51;;;;;;;6.97;5.20;;;7.00;99.90;;;;;;5035765;28;20180;-75
2024/01/06 10:26:18;;;;;;;7.30;5.80;;;6.80;99.90;;;;;;5035061;28;20179;-78
2024/01/06 10:28:43;;;;;;;6.80;5.23;;;6.70;99.90;;;;;;5034631;28;20180;-77
2024/01/06 10:31:09;;;;;;;9.17;5.77;;;6.60;99.90;;;;;;5034864;28;20650;-78
2024/01/06 10:33:35;;;;;;;10.00;5.67;;;6.50;99.90;;;;;;5041941;28;20269;-80
2024/01/06 10:36:04;;;;;;;7.80;5.57;;;6.50;99.90;;;;;;5055407;28;20218;-81
2024/01/06 10:38:30;;;;;;;5.70;5.20;;;6.50;99.90;;;;;;5054827;28;20194;-77
2024/01/06 10:41:09;;;;;;;8.30;6.10;;;6.50;99.90;;;;;;5053963;28;20649;-77
2024/01/06 10:43:40;;;;;;;7.53;5.83;;;6.60;99.90;;;;;;5045213;28;20165;-77
2024/01/06 10:46:10;;;;;;;8.63;6.17;;;6.60;99.90;;;;;;5034062;28;20175;-76
2024/01/06 10:48:46;;;;;;;10.93;6.03;;;6.50;99.90;;;;;;5035511;28;20167;-77
2024/01/06 10:51:16;;;;;;;8.37;5.70;;;6.50;99.90;;;;;;5035482;28;20190;-76
2024/01/06 10:53:43;;;;;;;10.23;5.87;;;6.60;99.90;;;;;;5041505;28;20184;-77
2024/01/06 10:56:13;;;;;;;7.77;5.93;;;6.60;99.90;;;;;;5054870;28;20209;-76
2024/01/06 10:58:49;;;;;;;7.40;5.80;;;6.50;99.90;;;;;;5039138;28;20503;-75
2024/01/06 11:01:20;;;;;;;6.30;5.67;;;6.50;99.90;;;;;;5045623;28;20166;-76
2024/01/06 11:03:48;;;;;;;9.83;6.23;;;6.50;99.90;;;;;;5050443;28;20160;-75
2024/01/06 11:06:17;;;;;;;10.30;6.43;;;6.60;99.90;;;;;;5065689;28;20170;-77
2024/01/06 11:09:17;;;;;;;8.47;6.60;;;6.60;99.90;;;;;;5037063;28;20239;-77
2024/01/06 11:11:44;;;;;;;11.93;6.93;;;6.70;99.90;;;;;;5042954;28;20194;-77
2024/01/06 11:14:31;;;;;;;9.80;6.60;;;6.70;99.90;;;;;;5040637;28;20171;-77
2024/01/06 11:16:57;;;;;;;8.73;6.60;;;6.60;99.90;;;;;;5032032;28;20231;-76
2024/01/06 11:19:43;;;;;;;8.23;5.90;;;6.50;99.90;;;;;;5034656;28;20173;-77
2024/01/06 11:22:31;;;;;;;7.83;6.20;;;6.50;99.90;;;;;;5033558;28;20176;-76
2024/01/06 11:25:05;;;;;;;9.87;6.27;;;6.50;99.90;;;;;;5033710;28;20185;-77
2024/01/06 11:27:31;;;;;;;7.90;6.40;;;6.50;99.90;;;;;;5036642;28;20230;-76
2024/01/06 11:30:00;;;;;;;8.80;6.00;;;6.40;99.90;;;;;;5056033;28;20191;-77
2024/01/06 11:32:28;;;;;;;10.37;6.77;;;6.40;99.90;;;;;;5064306;28;20260;-78
2024/01/06 11:34:58;;;;;;;7.83;6.33;;;6.40;99.90;;;;;;5060580;28;20191;-76
2024/01/06 11:37:26;;;;;;;9.77;6.43;;;6.30;99.90;;;;;;5055140;28;20547;-75
2024/01/06 11:39:53;;;;;;;9.77;6.90;;;6.30;99.90;;;;;;5058247;28;20179;-75
2024/01/06 11:42:19;;;;;;;8.53;6.80;;;6.40;99.90;;;;;;5054689;28;20235;-78
2024/01/06 11:44:49;;;;;;;8.37;7.23;;;6.40;99.90;;;;;;5054135;28;20243;-78
2024/01/06 11:47:17;;;;;;;11.03;7.80;;;6.50;99.90;;;;;;5054542;28;20156;-76
2024/01/06 11:49:48;;;;;;;10.80;7.43;;;6.60;99.90;;;;;;5053555;28;20768;-74
2024/01/06 11:52:14;;;;;;;9.03;6.63;;;6.60;99.90;;;;;;5053652;28;20705;-79
2024/01/06 11:54:41;;;;;;;9.97;6.77;;;6.70;99.90;;;;;;5054494;28;20214;-81
2024/01/06 11:57:07;;;;;;;11.60;6.63;;;6.50;99.90;;;;;;5050416;28;20200;-79
2024/01/06 11:59:33;;;;;;;8.33;6.67;;;6.50;99.90;;;;;;5035381;28;20188;-77
2024/01/06 12:01:59;;;;;;;9.73;6.77;;;6.60;99.90;;;;;;5032415;28;20581;-77
2024/01/06 12:04:26;;;;;;;8.17;6.83;;;6.90;99.90;;;;;;5042164;28;20178;-80
2024/01/06 12:06:54;;;;;;;11.87;7.53;;;6.60;99.90;;;;;;5051884;28;20786;-77
2024/01/06 12:09:20;;;;;;;11.53;7.40;;;6.50;99.90;;;;;;5052684;28;20237;-79
2024/01/06 12:11:46;;;;;;;8.83;7.27;;;6.50;99.90;;;;;;5053405;28;20178;-79
2024/01/06 12:14:13;;;;;;;9.97;7.07;;;6.50;99.90;;;;;;5053421;28;20178;-78
2024/01/06 12:16:38;;;;;;;10.73;7.30;;;6.50;99.90;;;;;;5054772;28;20724;-76
2024/01/06 12:19:04;;;;;;;9.90;7.77;;;6.50;99.90;;;;;;5054367;28;20258;-79
2024/01/06 12:21:37;;;;;;;12.47;7.80;;;6.50;99.90;;;;;;5051798;28;20189;-78
2024/01/06 12:24:15;;;;;;;10.43;7.87;;;6.50;99.90;;;;;;5053775;28;20261;-78
2024/01/06 12:26:41;;;;;;;8.40;7.17;;;6.60;99.90;;;;;;5053466;28;20517;-77
2024/01/06 12:29:07;;;;;;;12.37;7.30;;;6.70;99.90;;;;;;5053759;28;20176;-77
2024/01/06 12:31:33;;;;;;;8.77;7.00;;;6.60;99.90;;;;;;5053619;28;20186;-81
2024/01/06 12:34:00;;;;;;;8.17;6.73;;;6.70;99.90;;;;;;5052819;28;20199;-79
2024/01/06 12:36:25;;;;;;;7.57;6.07;;;6.70;99.90;;;;;;5053099;28;20201;-79
2024/01/06 12:38:51;;;;;;;6.07;5.57;;;6.60;99.90;;;;;;5053033;28;20182;-78
2024/01/06 12:41:17;;;;;;;6.50;5.50;;;8.30;99.90;;;;;;5052989;28;20661;-78
2024/01/06 12:43:43;;;;;;;5.77;5.17;;;6.70;99.90;;;;;;5054513;28;20257;-80
2024/01/06 12:46:08;;;;;;;7.50;5.20;;;6.70;99.90;;;;;;5057310;28;20166;-78
2024/01/06 12:48:34;;;;;;;6.80;4.63;;;6.70;99.90;;;;;;5057276;28;20692;-77
2024/01/06 12:51:00;;;;;;;4.93;4.43;;;6.60;99.90;;;;;;5057837;28;20190;-75
2024/01/06 12:53:26;;;;;;;5.33;4.83;;;6.60;99.90;;;;;;5075072;28;20176;-75